Time;durP1;ratioP1;P1;durP2;ratioP2;P2;SDS_P1;SDS_P2;PMS_P1;PMS_P2;Temp;Humidity;BMP_temperature;BMP_pressure;BME280_temperature;BME280_humidity;BME280_pressure;Samples;Min_cycle;Max_cycle;Signal;HPM_P1;HPM_P2
2024/04/03 00:01:49;;;;;;;2.20;0.50;;;;;;;;;;103543;1291;545640;-71
2024/04/03 00:05:26;;;;;;;2.70;0.70;;;;;;;;;;103827;1292;545536;-75
2024/04/03 00:09:04;;;;;;;2.60;0.60;;;;;;;;;;103896;1292;544791;-70
2024/04/03 00:12:41;;;;;;;3.20;0.70;;;;;;;;;;103816;1289;546339;-75
2024/04/03 00:16:15;;;;;;;4.10;0.70;;;;;;;;;;103948;1288;545009;-74
2024/04/03 00:19:56;;;;;;;2.70;0.70;;;;;;;;;;103724;1292;544718;-70
2024/04/03 00:23:34;;;;;;;4.60;0.80;;;;;;;;;;103681;1295;544881;-74
2024/04/03 00:27:11;;;;;;;2.40;0.60;;;;;;;;;;103755;1291;545084;-70
2024/04/03 00:30:48;;;;;;;4.10;0.60;;;;;;;;;;103463;1298;544913;-69
2024/04/03 00:34:25;;;;;;;3.80;0.80;;;;;;;;;;104553;1283;545571;-72
2024/04/03 00:38:03;;;;;;;4.50;0.70;;;;;;;;;;103704;1292;544849;-69
2024/04/03 00:41:41;;;;;;;4.40;0.70;;;;;;;;;;103813;1289;545475;-70
2024/04/03 00:45:18;;;;;;;4.10;0.90;;;;;;;;;;103914;1289;545135;-70
2024/04/03 00:48:56;;;;;;;3.60;0.70;;;;;;;;;;104475;1286;545459;-69
2024/04/03 00:52:34;;;;;;;3.80;0.80;;;;;;;;;;103501;1291;545411;-71
2024/04/03 00:56:13;;;;;;;4.70;0.80;;;;;;;;;;103492;1292;545046;-72
2024/04/03 00:59:48;;;;;;;4.00;0.70;;;;;;;;;;103790;1289;545747;-70
2024/04/03 01:03:26;;;;;;;2.90;0.70;;;;;;;;;;103741;1289;544785;-69
2024/04/03 01:07:04;;;;;;;3.30;0.80;;;;;;;;;;103577;1292;544973;-69
2024/04/03 01:10:40;;;;;;;5.00;0.80;;;;;;;;;;103522;1295;545585;-72
2024/04/03 01:14:18;;;;;;;5.30;0.90;;;;;;;;;;103797;1290;544777;-74
2024/04/03 01:17:56;;;;;;;7.90;1.10;;;;;;;;;;103468;1295;545739;-71
2024/04/03 01:21:33;;;;;;;7.40;2.30;;;;;;;;;;103725;1291;545301;-71
2024/04/03 01:25:11;;;;;;;8.10;2.40;;;;;;;;;;103752;1289;545924;-71
2024/04/03 01:28:48;;;;;;;6.50;1.50;;;;;;;;;;103690;1292;544662;-73
2024/04/03 01:32:28;;;;;;;4.00;0.80;;;;;;;;;;103718;1294;545439;-70
2024/04/03 01:36:05;;;;;;;3.80;1.00;;;;;;;;;;103507;1292;544640;-70
2024/04/03 01:39:41;;;;;;;5.70;1.50;;;;;;;;;;103488;1298;544938;-70
2024/04/03 01:43:18;;;;;;;3.80;1.00;;;;;;;;;;103713;1290;544968;-71
2024/04/03 01:46:56;;;;;;;4.10;0.90;;;;;;;;;;103587;1289;544881;-71
2024/04/03 01:50:37;;;;;;;5.50;1.10;;;;;;;;;;103984;1289;545379;-69
2024/04/03 01:54:11;;;;;;;4.80;0.90;;;;;;;;;;103780;1292;544966;-69
2024/04/03 01:57:47;;;;;;;3.80;1.00;;;;;;;;;;103562;1292;544967;-70
2024/04/03 02:01:26;;;;;;;4.20;0.90;;;;;;;;;;104531;1286;545769;-71
2024/04/03 02:05:03;;;;;;;4.20;0.80;;;;;;;;;;103581;1292;545272;-71
2024/04/03 02:08:41;;;;;;;5.80;1.00;;;;;;;;;;103870;1289;544781;-71
2024/04/03 02:12:19;;;;;;;5.00;0.90;;;;;;;;;;103700;1293;544764;-71
2024/04/03 02:15:56;;;;;;;4.80;1.10;;;;;;;;;;103627;1295;544863;-71
2024/04/03 02:19:32;;;;;;;7.10;1.20;;;;;;;;;;104536;1283;544974;-71
2024/04/03 02:23:10;;;;;;;5.30;1.00;;;;;;;;;;103677;1289;545092;-69
2024/04/03 02:26:48;;;;;;;4.80;0.90;;;;;;;;;;103768;1289;544973;-71
2024/04/03 02:30:26;;;;;;;4.70;0.90;;;;;;;;;;103929;1293;544920;-70
2024/04/03 02:34:04;;;;;;;4.00;0.80;;;;;;;;;;103708;1290;545041;-71
2024/04/03 02:37:41;;;;;;;6.10;1.30;;;;;;;;;;103753;1293;545096;-70
2024/04/03 02:41:18;;;;;;;5.40;0.90;;;;;;;;;;103931;1288;545346;-71
2024/04/03 02:44:55;;;;;;;6.30;1.20;;;;;;;;;;104364;1283;545933;-70
2024/04/03 02:48:33;;;;;;;6.60;1.20;;;;;;;;;;103781;1292;544873;-70
2024/04/03 02:52:10;;;;;;;3.70;0.90;;;;;;;;;;103844;1289;544814;-70
2024/04/03 02:55:47;;;;;;;4.50;1.00;;;;;;;;;;104326;1286;544899;-71
2024/04/03 02:59:25;;;;;;;5.40;1.00;;;;;;;;;;103938;1289;545086;-71
2024/04/03 03:03:03;;;;;;;7.00;1.20;;;;;;;;;;103732;1290;545437;-69
2024/04/03 03:06:41;;;;;;;5.50;1.20;;;;;;;;;;103426;1295;545614;-70
2024/04/03 03:10:18;;;;;;;6.80;1.20;;;;;;;;;;103913;1289;544753;-72
2024/04/03 03:13:55;;;;;;;5.90;1.10;;;;;;;;;;103760;1292;544910;-70
2024/04/03 03:17:32;;;;;;;4.90;1.20;;;;;;;;;;103801;1291;544764;-69
2024/04/03 03:21:11;;;;;;;5.50;1.20;;;;;;;;;;103720;1292;544911;-69
2024/04/03 03:24:48;;;;;;;6.30;1.40;;;;;;;;;;103935;1289;544764;-69
2024/04/03 03:28:25;;;;;;;6.70;1.30;;;;;;;;;;103805;1289;544825;-69
2024/04/03 03:31:59;;;;;;;7.10;1.20;;;;;;;;;;103740;1292;544889;-69
2024/04/03 03:35:40;;;;;;;6.70;1.30;;;;;;;;;;103593;1292;544711;-71
2024/04/03 03:39:18;;;;;;;9.40;1.30;;;;;;;;;;103796;1292;544880;-71
2024/04/03 03:42:55;;;;;;;7.50;0.90;;;;;;;;;;103704;1298;545063;-69
2024/04/03 03:46:33;;;;;;;5.50;1.10;;;;;;;;;;103760;1289;545035;-69
2024/04/03 03:53:48;;;;;;;4.90;0.90;;;;;;;;;;103671;1290;545245;-68
2024/04/03 03:57:25;;;;;;;6.80;1.10;;;;;;;;;;103615;1291;545985;-68
2024/04/03 04:01:03;;;;;;;7.30;1.10;;;;;;;;;;103787;1291;545238;-70
2024/04/03 04:04:36;;;;;;;8.90;1.60;;;;;;;;;;103955;1288;544778;-71
2024/04/03 04:08:17;;;;;;;4.70;0.70;;;;;;;;;;103754;1300;544816;-69
2024/04/03 04:11:54;;;;;;;5.30;1.20;;;;;;;;;;103587;1292;545627;-72
2024/04/03 04:15:33;;;;;;;6.30;1.20;;;;;;;;;;103734;1292;545564;-70
2024/04/03 04:19:10;;;;;;;5.50;1.30;;;;;;;;;;103708;1298;544987;-71
2024/04/03 04:22:47;;;;;;;7.80;1.40;;;;;;;;;;104746;1280;544661;-70
2024/04/03 04:26:25;;;;;;;5.00;1.10;;;;;;;;;;103740;1290;545386;-70
2024/04/03 04:29:58;;;;;;;6.90;1.60;;;;;;;;;;103828;1289;545281;-71
2024/04/03 04:33:40;;;;;;;9.40;1.80;;;;;;;;;;103612;1291;545026;-70
2024/04/03 04:37:17;;;;;;;6.90;1.30;;;;;;;;;;103713;1290;544929;-73
2024/04/03 04:41:02;;;;;;;6.40;1.10;;;;;;;;;;103787;1292;545049;-70
2024/04/03 04:44:32;;;;;;;5.70;1.20;;;;;;;;;;103789;1289;545074;-71
2024/04/03 04:48:10;;;;;;;6.80;1.50;;;;;;;;;;104541;1285;544761;-71
2024/04/03 04:51:48;;;;;;;10.30;1.80;;;;;;;;;;104106;1286;544779;-71
2024/04/03 04:55:24;;;;;;;8.10;1.70;;;;;;;;;;103696;1289;544913;-69
2024/04/03 04:59:02;;;;;;;4.80;1.20;;;;;;;;;;104288;1285;544759;-71
2024/04/03 05:02:40;;;;;;;6.80;1.40;;;;;;;;;;103669;1291;544957;-70
2024/04/03 05:06:18;;;;;;;7.80;1.60;;;;;;;;;;103450;1305;545088;-70
2024/04/03 05:09:56;;;;;;;9.50;1.50;;;;;;;;;;104497;1283;545917;-70
2024/04/03 05:13:33;;;;;;;9.90;1.90;;;;;;;;;;103624;1291;545007;-69
2024/04/03 05:17:10;;;;;;;11.10;2.00;;;;;;;;;;103832;1290;545944;-70
2024/04/03 05:20:47;;;;;;;9.20;1.70;;;;;;;;;;103652;1291;545957;-70
2024/04/03 05:24:25;;;;;;;8.80;1.90;;;;;;;;;;103677;1293;545123;-69
2024/04/03 05:28:00;;;;;;;8.50;1.90;;;;;;;;;;103813;1289;545063;-71
2024/04/03 05:31:43;;;;;;;7.80;1.60;;;;;;;;;;103807;1292;545794;-72
2024/04/03 05:35:18;;;;;;;7.50;1.70;;;;;;;;;;103685;1292;544953;-70
2024/04/03 05:38:55;;;;;;;8.80;1.40;;;;;;;;;;103702;1291;545237;-70
2024/04/03 05:42:32;;;;;;;11.20;1.80;;;;;;;;;;103709;1291;545160;-70
2024/04/03 05:46:10;;;;;;;9.80;1.60;;;;;;;;;;103801;1301;544753;-71
2024/04/03 05:49:47;;;;;;;13.40;2.00;;;;;;;;;;103811;1289;544999;-71
2024/04/03 05:53:25;;;;;;;6.70;1.50;;;;;;;;;;103859;1289;545922;-69
2024/04/03 05:57:02;;;;;;;8.10;1.60;;;;;;;;;;103720;1292;545424;-72
2024/04/03 06:00:47;;;;;;;7.20;1.60;;;;;;;;;;103712;1291;548009;-69
2024/04/03 06:04:17;;;;;;;7.00;1.80;;;;;;;;;;103919;1289;545527;-71
2024/04/03 06:07:59;;;;;;;6.50;1.50;;;;;;;;;;104084;1288;545303;-71
2024/04/03 06:11:31;;;;;;;7.30;1.70;;;;;;;;;;103726;1289;545823;-71
2024/04/03 06:15:09;;;;;;;8.30;1.50;;;;;;;;;;103590;1294;545440;-72
2024/04/03 06:18:46;;;;;;;8.70;1.80;;;;;;;;;;103681;1291;545084;-71
2024/04/03 06:22:20;;;;;;;8.10;1.70;;;;;;;;;;103953;1290;545556;-72
2024/04/03 06:25:57;;;;;;;8.00;1.20;;;;;;;;;;103592;1292;545141;-72
2024/04/03 06:29:39;;;;;;;9.10;1.60;;;;;;;;;;103755;1295;545633;-72
2024/04/03 06:33:16;;;;;;;7.50;1.30;;;;;;;;;;103615;1290;544960;-71
2024/04/03 06:36:53;;;;;;;5.40;1.50;;;;;;;;;;103650;1292;545313;-71
2024/04/03 06:40:31;;;;;;;5.50;1.30;;;;;;;;;;103668;1291;544932;-71
2024/04/03 06:44:09;;;;;;;7.80;1.30;;;;;;;;;;103788;1290;544736;-71
2024/04/03 06:47:49;;;;;;;9.00;1.60;;;;;;;;;;103637;1288;545096;-73
2024/04/03 06:51:24;;;;;;;7.30;1.40;;;;;;;;;;103938;1292;545793;-71
2024/04/03 06:55:01;;;;;;;9.10;1.40;;;;;;;;;;103765;1292;544848;-70
2024/04/03 06:58:40;;;;;;;6.50;1.50;;;;;;;;;;103767;1292;544821;-72
2024/04/03 07:02:16;;;;;;;4.60;1.00;;;;;;;;;;103621;1295;545456;-71
2024/04/03 07:05:55;;;;;;;8.80;1.80;;;;;;;;;;103630;1292;545229;-69
2024/04/03 07:09:31;;;;;;;6.90;1.60;;;;;;;;;;103612;1291;545043;-70
2024/04/03 07:13:09;;;;;;;6.30;1.40;;;;;;;;;;103962;1289;544923;-70
2024/04/03 07:16:46;;;;;;;7.90;1.60;;;;;;;;;;103934;1289;545852;-69
2024/04/03 07:20:27;;;;;;;8.20;1.40;;;;;;;;;;103772;1289;544702;-73
2024/04/03 07:24:01;;;;;;;11.40;1.60;;;;;;;;;;103777;1289;546146;-71
2024/04/03 07:27:44;;;;;;;7.70;1.60;;;;;;;;;;103653;1291;544965;-72
2024/04/03 07:31:17;;;;;;;7.60;1.40;;;;;;;;;;103677;1291;545102;-73
2024/04/03 07:34:54;;;;;;;5.80;1.30;;;;;;;;;;103709;1295;545628;-73
2024/04/03 07:38:31;;;;;;;6.30;1.40;;;;;;;;;;103774;1291;544939;-71
2024/04/03 07:42:08;;;;;;;6.90;1.30;;;;;;;;;;103631;1292;547287;-72
2024/04/03 07:45:47;;;;;;;5.30;1.40;;;;;;;;;;103599;1292;547105;-70
2024/04/03 07:49:23;;;;;;;6.00;1.50;;;;;;;;;;103812;1289;544717;-71
2024/04/03 07:53:01;;;;;;;5.80;1.30;;;;;;;;;;103668;1292;545723;-70
2024/04/03 07:56:39;;;;;;;6.90;1.40;;;;;;;;;;103745;1289;545000;-71
2024/04/03 08:00:16;;;;;;;7.10;1.00;;;;;;;;;;103924;1292;544959;-72
2024/04/03 08:03:54;;;;;;;6.70;1.10;;;;;;;;;;103696;1295;545759;-70
2024/04/03 08:07:31;;;;;;;4.80;1.20;;;;;;;;;;103685;1295;545137;-70
2024/04/03 08:11:09;;;;;;;5.20;1.00;;;;;;;;;;103691;1291;545013;-69
2024/04/03 08:14:46;;;;;;;6.30;1.10;;;;;;;;;;103693;1292;544935;-70
2024/04/03 08:18:24;;;;;;;5.30;1.00;;;;;;;;;;104015;1285;545566;-67
2024/04/03 08:21:57;;;;;;;8.80;1.20;;;;;;;;;;104779;1286;544925;-69
2024/04/03 08:25:39;;;;;;;4.30;0.80;;;;;;;;;;103757;1292;545578;-70
2024/04/03 08:29:17;;;;;;;6.30;0.90;;;;;;;;;;103604;1290;544999;-71
2024/04/03 08:32:54;;;;;;;6.10;1.40;;;;;;;;;;103880;1288;545182;-69
2024/04/03 08:36:30;;;;;;;3.40;1.00;;;;;;;;;;103690;1292;544803;-72
2024/04/03 08:40:05;;;;;;;6.40;1.00;;;;;;;;;;104549;1282;546100;-70
2024/04/03 08:43:42;;;;;;;4.60;0.80;;;;;;;;;;103858;1292;545546;-70
2024/04/03 08:47:25;;;;;;;7.70;1.30;;;;;;;;;;103763;1289;544990;-70
2024/04/03 08:51:01;;;;;;;7.10;1.10;;;;;;;;;;103694;1298;545834;-72
2024/04/03 08:54:40;;;;;;;6.40;0.90;;;;;;;;;;103626;1291;545006;-70
2024/04/03 08:58:16;;;;;;;5.70;1.20;;;;;;;;;;103959;1289;545678;-70
2024/04/03 09:01:53;;;;;;;5.80;1.00;;;;;;;;;;104379;1284;544695;-70
2024/04/03 09:05:31;;;;;;;5.40;1.10;;;;;;;;;;103714;1294;544951;-70
2024/04/03 09:09:21;;;;;;;7.00;1.10;;;;;;;;;;103977;1286;545305;-69
2024/04/03 09:12:46;;;;;;;5.60;1.00;;;;;;;;;;103414;1291;547065;-69
2024/04/03 09:16:21;;;;;;;6.10;1.40;;;;;;;;;;103381;1295;545387;-71
2024/04/03 09:20:01;;;;;;;5.90;1.40;;;;;;;;;;103686;1288;545431;-70
2024/04/03 09:23:38;;;;;;;7.60;1.40;;;;;;;;;;103753;1289;544775;-73
2024/04/03 09:27:17;;;;;;;5.40;1.50;;;;;;;;;;104503;1288;545085;-68
2024/04/03 09:30:49;;;;;;;6.60;1.30;;;;;;;;;;103660;1289;544741;-68
2024/04/03 09:34:28;;;;;;;5.80;1.70;;;;;;;;;;103668;1289;545053;-68
2024/04/03 09:38:04;;;;;;;9.90;1.80;;;;;;;;;;105748;1291;544951;-68
2024/04/03 09:41:43;;;;;;;8.80;1.80;;;;;;;;;;104382;1286;546194;-71
2024/04/03 09:45:26;;;;;;;6.10;1.10;;;;;;;;;;103859;1289;545056;-71
2024/04/03 09:48:58;;;;;;;8.70;1.40;;;;;;;;;;103869;1289;544734;-71
2024/04/03 09:52:39;;;;;;;7.40;1.60;;;;;;;;;;103719;1294;545673;-69
2024/04/03 09:56:16;;;;;;;7.30;1.80;;;;;;;;;;103770;1290;544829;-70
2024/04/03 09:59:57;;;;;;;8.70;1.70;;;;;;;;;;103723;1291;545378;-69
2024/04/03 10:03:32;;;;;;;8.30;1.70;;;;;;;;;;103724;1291;544823;-72
2024/04/03 10:07:18;;;;;;;8.60;1.50;;;;;;;;;;103635;1289;545461;-71
2024/04/03 10:10:46;;;;;;;8.40;1.70;;;;;;;;;;104011;1292;544896;-68
2024/04/03 10:14:20;;;;;;;7.30;1.50;;;;;;;;;;103668;1293;545104;-70
2024/04/03 10:18:01;;;;;;;8.60;1.60;;;;;;;;;;103572;1292;545028;-70
2024/04/03 10:21:38;;;;;;;8.60;1.80;;;;;;;;;;103733;1289;545856;-70
2024/04/03 10:25:16;;;;;;;6.20;1.10;;;;;;;;;;104077;1286;545039;-69
2024/04/03 10:28:53;;;;;;;6.50;1.50;;;;;;;;;;103689;1301;545013;-71
2024/04/03 10:32:30;;;;;;;8.00;1.60;;;;;;;;;;103626;1294;545957;-71
2024/04/03 10:36:09;;;;;;;7.30;1.60;;;;;;;;;;103553;1292;544940;-71
2024/04/03 10:39:45;;;;;;;6.40;1.40;;;;;;;;;;103645;1292;545282;-74
2024/04/03 10:43:22;;;;;;;6.60;1.90;;;;;;;;;;103842;1289;545624;-72
2024/04/03 10:47:07;;;;;;;8.70;2.10;;;;;;;;;;103831;1296;544973;-72
2024/04/03 10:50:38;;;;;;;6.10;1.60;;;;;;;;;;103960;1288;544831;-70
2024/04/03 10:54:16;;;;;;;7.60;1.80;;;;;;;;;;103669;1294;545125;-72
2024/04/03 10:57:52;;;;;;;7.00;1.90;;;;;;;;;;103803;1289;545507;-73
2024/04/03 11:01:31;;;;;;;7.30;1.50;;;;;;;;;;103660;1291;544914;-71
2024/04/03 11:05:08;;;;;;;7.50;2.00;;;;;;;;;;103662;1291;545117;-73
2024/04/03 11:08:46;;;;;;;6.10;1.50;;;;;;;;;;103732;1291;545591;-72
2024/04/03 11:12:22;;;;;;;8.90;1.70;;;;;;;;;;103728;1292;546064;-71
2024/04/03 11:16:00;;;;;;;6.80;1.60;;;;;;;;;;103818;1289;544804;-73
2024/04/03 11:19:38;;;;;;;5.00;1.30;;;;;;;;;;103497;1292;545348;-70
2024/04/03 11:23:15;;;;;;;7.70;1.80;;;;;;;;;;103683;1295;546563;-72
2024/04/03 11:26:52;;;;;;;6.50;1.00;;;;;;;;;;103865;1289;545215;-71
2024/04/03 11:30:30;;;;;;;7.10;1.80;;;;;;;;;;103754;1290;544955;-70
2024/04/03 11:34:08;;;;;;;5.10;1.30;;;;;;;;;;104053;1289;545342;-70
2024/04/03 11:37:45;;;;;;;5.50;1.40;;;;;;;;;;103739;1303;544913;-71
2024/04/03 11:41:22;;;;;;;4.70;1.10;;;;;;;;;;104554;1285;544968;-69
2024/04/03 11:44:59;;;;;;;6.70;1.40;;;;;;;;;;103797;1295;546016;-70
2024/04/03 11:48:37;;;;;;;5.50;1.60;;;;;;;;;;103556;1291;544937;-72
2024/04/03 11:52:16;;;;;;;6.50;1.60;;;;;;;;;;105510;1290;545325;-69
2024/04/03 11:55:48;;;;;;;6.70;1.80;;;;;;;;;;103802;1291;545727;-70
2024/04/03 11:59:30;;;;;;;6.20;1.20;;;;;;;;;;104128;1289;545899;-69
2024/04/03 12:03:07;;;;;;;5.00;1.20;;;;;;;;;;103661;1289;545191;-72
2024/04/03 12:06:45;;;;;;;5.70;1.30;;;;;;;;;;103713;1288;544929;-71
2024/04/03 12:10:22;;;;;;;6.60;1.30;;;;;;;;;;103742;1289;544876;-71
2024/04/03 12:14:00;;;;;;;5.80;1.10;;;;;;;;;;103864;1289;544955;-71
2024/04/03 12:17:37;;;;;;;5.40;1.20;;;;;;;;;;103752;1290;545087;-70
2024/04/03 12:21:15;;;;;;;5.10;1.40;;;;;;;;;;103631;1293;544995;-71
2024/04/03 12:24:52;;;;;;;5.70;1.30;;;;;;;;;;104309;1283;545780;-72
2024/04/03 12:28:30;;;;;;;6.40;1.70;;;;;;;;;;103513;1294;545148;-71
2024/04/03 12:32:07;;;;;;;7.50;1.90;;;;;;;;;;103588;1291;545018;-71
2024/04/03 12:35:44;;;;;;;6.60;1.50;;;;;;;;;;103660;1291;545528;-71
2024/04/03 12:39:25;;;;;;;5.70;1.20;;;;;;;;;;103606;1292;545580;-72
2024/04/03 12:43:00;;;;;;;6.60;1.40;;;;;;;;;;103543;1295;544951;-71
2024/04/03 12:46:37;;;;;;;7.10;1.50;;;;;;;;;;103800;1295;544820;-71
2024/04/03 12:50:14;;;;;;;6.20;1.50;;;;;;;;;;103808;1289;545114;-70
2024/04/03 12:53:52;;;;;;;6.00;1.40;;;;;;;;;;104173;1290;545396;-70
2024/04/03 12:57:25;;;;;;;6.80;1.50;;;;;;;;;;104585;1283;544865;-71
2024/04/03 13:01:07;;;;;;;4.90;1.80;;;;;;;;;;103715;1290;545211;-69
2024/04/03 13:04:45;;;;;;;9.40;2.90;;;;;;;;;;103681;1295;545042;-70
2024/04/03 13:08:22;;;;;;;6.00;1.70;;;;;;;;;;103743;1303;545035;-71
2024/04/03 13:12:00;;;;;;;6.00;1.60;;;;;;;;;;103392;1293;545027;-71
2024/04/03 13:15:33;;;;;;;4.90;1.30;;;;;;;;;;103737;1292;544803;-72
2024/04/03 13:19:14;;;;;;;5.60;1.10;;;;;;;;;;103722;1291;544908;-70
2024/04/03 13:22:58;;;;;;;4.80;1.30;;;;;;;;;;103890;1289;544873;-71
2024/04/03 13:26:31;;;;;;;5.40;1.40;;;;;;;;;;103682;1292;544809;-73
2024/04/03 13:30:07;;;;;;;7.20;1.40;;;;;;;;;;103806;1298;545601;-70
2024/04/03 13:33:44;;;;;;;6.50;1.40;;;;;;;;;;103883;1290;544782;-72
2024/04/03 13:37:22;;;;;;;4.70;1.20;;;;;;;;;;103819;1295;545243;-70
2024/04/03 13:41:02;;;;;;;4.70;1.00;;;;;;;;;;103666;1292;546205;-71
2024/04/03 13:44:37;;;;;;;7.50;1.50;;;;;;;;;;103902;1289;544811;-71
2024/04/03 13:48:14;;;;;;;6.80;1.30;;;;;;;;;;104100;1287;544961;-70
2024/04/03 13:51:51;;;;;;;5.10;1.40;;;;;;;;;;103705;1291;544777;-69
2024/04/03 13:55:29;;;;;;;5.80;1.80;;;;;;;;;;103771;1292;545401;-71
2024/04/03 13:59:07;;;;;;;3.70;0.90;;;;;;;;;;103624;1291;545014;-72
2024/04/03 14:02:44;;;;;;;5.90;1.20;;;;;;;;;;103884;1289;544902;-72
2024/04/03 14:06:22;;;;;;;7.00;2.10;;;;;;;;;;103687;1292;545291;-70
2024/04/03 14:10:00;;;;;;;6.10;1.70;;;;;;;;;;103706;1289;545376;-68
2024/04/03 14:13:37;;;;;;;7.00;1.80;;;;;;;;;;103705;1290;545529;-71
2024/04/03 14:17:14;;;;;;;10.10;4.80;;;;;;;;;;103755;1291;545253;-71
2024/04/03 14:20:51;;;;;;;10.20;3.40;;;;;;;;;;103776;1294;545713;-69
2024/04/03 14:24:29;;;;;;;8.20;2.40;;;;;;;;;;103732;1292;544793;-71
2024/04/03 14:28:07;;;;;;;8.50;2.40;;;;;;;;;;103715;1289;544819;-71
2024/04/03 14:31:47;;;;;;;8.30;2.10;;;;;;;;;;104795;1283;545054;-71
2024/04/03 14:35:22;;;;;;;8.00;2.80;;;;;;;;;;103789;1289;545101;-70
2024/04/03 14:38:59;;;;;;;8.70;4.20;;;;;;;;;;103748;1293;544894;-70
2024/04/03 14:42:42;;;;;;;10.00;4.90;;;;;;;;;;103587;1293;548081;-71
2024/04/03 14:46:14;;;;;;;8.90;3.60;;;;;;;;;;103516;1294;545799;-71
2024/04/03 14:49:52;;;;;;;9.10;3.30;;;;;;;;;;103760;1292;545156;-72
2024/04/03 14:53:29;;;;;;;10.10;3.40;;;;;;;;;;103557;1295;545077;-70
2024/04/03 14:57:07;;;;;;;9.10;3.20;;;;;;;;;;103705;1291;545539;-71
2024/04/03 15:00:44;;;;;;;9.40;2.90;;;;;;;;;;103819;1289;545120;-71
2024/04/03 15:04:22;;;;;;;8.10;2.90;;;;;;;;;;103836;1294;545640;-70
2024/04/03 15:07:58;;;;;;;9.30;3.60;;;;;;;;;;103948;1287;545517;-72
2024/04/03 15:11:37;;;;;;;8.40;2.60;;;;;;;;;;103782;1289;545072;-70
2024/04/03 15:15:45;;;;;;;12.50;3.80;;;;;;;;;;104074;1285;548074;-73
2024/04/03 15:18:52;;;;;;;12.80;8.00;;;;;;;;;;103913;1289;545191;-72
2024/04/03 15:22:29;;;;;;;7.60;2.70;;;;;;;;;;103645;1293;544798;-72
2024/04/03 15:26:09;;;;;;;6.70;2.20;;;;;;;;;;104061;1286;545007;-71
2024/04/03 15:29:44;;;;;;;7.90;2.60;;;;;;;;;;103618;1295;544948;-72
2024/04/03 15:33:17;;;;;;;13.40;7.00;;;;;;;;;;103843;1292;544951;-71
2024/04/03 15:36:55;;;;;;;9.70;3.70;;;;;;;;;;103811;1289;544797;-70
2024/04/03 15:40:36;;;;;;;9.20;3.10;;;;;;;;;;103644;1292;544983;-71
2024/04/03 15:44:16;;;;;;;6.10;2.30;;;;;;;;;;103737;1289;545518;-71
2024/04/03 15:47:51;;;;;;;7.40;2.30;;;;;;;;;;103769;1295;545487;-71
2024/04/03 15:51:29;;;;;;;6.90;2.50;;;;;;;;;;104443;1289;544753;-71
2024/04/03 15:55:06;;;;;;;8.90;2.10;;;;;;;;;;103576;1292;545958;-72
2024/04/03 15:58:44;;;;;;;5.20;1.80;;;;;;;;;;103698;1291;544865;-72
2024/04/03 16:02:21;;;;;;;6.50;2.00;;;;;;;;;;103847;1289;545395;-72
2024/04/03 16:05:58;;;;;;;6.10;2.00;;;;;;;;;;103715;1290;544940;-71
2024/04/03 16:09:36;;;;;;;8.10;2.40;;;;;;;;;;103827;1289;545211;-71
2024/04/03 16:13:13;;;;;;;7.50;2.70;;;;;;;;;;103537;1295;545093;-70
2024/04/03 16:16:51;;;;;;;7.80;2.60;;;;;;;;;;103767;1292;545149;-72
2024/04/03 16:20:28;;;;;;;8.60;3.40;;;;;;;;;;104024;1289;544749;-71
2024/04/03 16:24:26;;;;;;;8.80;4.00;;;;;;;;;;103894;1292;544778;-71
2024/04/03 16:27:44;;;;;;;11.80;4.80;;;;;;;;;;103726;1289;545541;-70
2024/04/03 16:31:17;;;;;;;10.10;4.30;;;;;;;;;;103835;1295;545061;-72
2024/04/03 16:34:58;;;;;;;13.00;5.90;;;;;;;;;;104822;1282;544744;-71
2024/04/03 16:38:36;;;;;;;13.10;6.80;;;;;;;;;;103872;1290;544978;-70
2024/04/03 16:42:13;;;;;;;11.20;4.70;;;;;;;;;;103789;1290;544724;-70
2024/04/03 16:45:51;;;;;;;9.90;4.20;;;;;;;;;;103755;1289;545134;-71
2024/04/03 16:49:28;;;;;;;6.70;2.40;;;;;;;;;;104014;1289;544966;-73
2024/04/03 16:53:06;;;;;;;9.20;3.50;;;;;;;;;;104062;1286;545616;-70
2024/04/03 16:56:43;;;;;;;14.90;7.60;;;;;;;;;;103722;1292;544975;-70
2024/04/03 17:00:17;;;;;;;10.30;3.90;;;;;;;;;;103855;1292;545252;-70
2024/04/03 17:03:58;;;;;;;6.00;2.60;;;;;;;;;;103710;1291;545095;-70
2024/04/03 17:07:36;;;;;;;8.20;3.00;;;;;;;;;;103651;1292;545723;-72
2024/04/03 17:11:11;;;;;;;8.20;3.60;;;;;;;;;;103777;1292;545054;-72
2024/04/03 17:14:51;;;;;;;8.70;2.80;;;;;;;;;;103940;1289;546186;-71
2024/04/03 17:18:28;;;;;;;9.60;4.90;;;;;;;;;;103823;1292;544899;-71
2024/04/03 17:22:06;;;;;;;6.60;2.00;;;;;;;;;;103587;1295;545606;-70
2024/04/03 17:25:43;;;;;;;6.20;2.00;;;;;;;;;;103831;1289;544975;-71
2024/04/03 17:29:17;;;;;;;7.20;2.40;;;;;;;;;;103569;1294;545126;-70
2024/04/03 17:32:58;;;;;;;6.40;2.40;;;;;;;;;;103711;1291;545064;-70
2024/04/03 17:36:35;;;;;;;11.90;4.10;;;;;;;;;;103842;1290;544780;-68
2024/04/03 17:40:14;;;;;;;63.80;51.60;;;;;;;;;;103578;1292;545550;-70
2024/04/03 17:43:48;;;;;;;104.40;85.90;;;;;;;;;;103789;1292;544945;-71
2024/04/03 17:47:28;;;;;;;24.80;19.10;;;;;;;;;;103751;1288;544894;-70
2024/04/03 17:51:06;;;;;;;18.90;12.70;;;;;;;;;;103579;1292;545391;-72
2024/04/03 17:54:44;;;;;;;13.50;6.80;;;;;;;;;;104034;1287;544750;-71
2024/04/03 17:58:22;;;;;;;13.90;7.50;;;;;;;;;;104071;1286;545397;-70
2024/04/03 18:01:58;;;;;;;12.20;6.90;;;;;;;;;;103669;1293;545648;-70
2024/04/03 18:05:36;;;;;;;18.60;11.30;;;;;;;;;;103743;1296;545543;-70
2024/04/03 18:09:13;;;;;;;16.60;9.90;;;;;;;;;;103796;1289;544825;-71
2024/04/03 18:12:51;;;;;;;14.50;8.10;;;;;;;;;;103738;1291;546482;-71
2024/04/03 18:16:28;;;;;;;14.50;7.20;;;;;;;;;;104565;1282;547732;-72
2024/04/03 18:20:06;;;;;;;13.20;6.00;;;;;;;;;;103935;1292;545111;-71
2024/04/03 18:23:39;;;;;;;15.20;6.70;;;;;;;;;;103781;1294;544976;-69
2024/04/03 18:27:22;;;;;;;20.80;8.20;;;;;;;;;;103584;1298;545286;-71
2024/04/03 18:30:58;;;;;;;18.10;8.80;;;;;;;;;;103777;1289;545228;-71
2024/04/03 18:34:35;;;;;;;24.20;10.60;;;;;;;;;;103903;1289;545248;-70
2024/04/03 18:38:13;;;;;;;22.50;10.50;;;;;;;;;;103788;1291;544847;-72
2024/04/03 18:41:50;;;;;;;18.20;9.00;;;;;;;;;;103551;1295;545736;-73
2024/04/03 18:45:28;;;;;;;17.20;9.20;;;;;;;;;;103649;1291;545602;-71
2024/04/03 18:49:05;;;;;;;17.40;9.10;;;;;;;;;;104558;1283;545003;-71
2024/04/03 18:52:45;;;;;;;15.00;8.40;;;;;;;;;;103766;1291;545499;-73
2024/04/03 18:56:20;;;;;;;16.10;8.80;;;;;;;;;;103770;1289;545336;-70
2024/04/03 19:00:04;;;;;;;15.60;8.70;;;;;;;;;;103715;1292;544783;-70
2024/04/03 19:03:36;;;;;;;18.90;9.20;;;;;;;;;;104020;1299;544977;-70
2024/04/03 19:07:13;;;;;;;16.40;9.40;;;;;;;;;;103824;1289;545596;-70
2024/04/03 19:11:00;;;;;;;18.30;9.50;;;;;;;;;;103586;1291;545067;-71
2024/04/03 19:14:28;;;;;;;17.60;9.50;;;;;;;;;;104444;1283;544720;-70
2024/04/03 19:18:05;;;;;;;20.40;10.40;;;;;;;;;;103638;1291;545771;-71
2024/04/03 19:21:43;;;;;;;19.30;9.60;;;;;;;;;;103961;1292;544737;-72
2024/04/03 19:25:20;;;;;;;16.90;8.40;;;;;;;;;;103689;1290;545104;-72
2024/04/03 19:28:58;;;;;;;16.50;8.70;;;;;;;;;;103829;1293;544931;-70
2024/04/03 19:32:38;;;;;;;15.10;8.60;;;;;;;;;;103643;1292;545179;-71
2024/04/03 19:36:12;;;;;;;16.30;9.10;;;;;;;;;;103468;1295;545475;-71
2024/04/03 19:39:51;;;;;;;19.30;10.20;;;;;;;;;;103756;1292;544773;-71
2024/04/03 19:43:29;;;;;;;22.80;12.70;;;;;;;;;;103681;1291;544933;-71
2024/04/03 19:47:05;;;;;;;22.40;12.80;;;;;;;;;;103650;1292;545018;-71
2024/04/03 19:50:43;;;;;;;19.40;11.30;;;;;;;;;;103725;1292;544728;-71
2024/04/03 19:54:16;;;;;;;18.10;10.80;;;;;;;;;;103776;1289;545328;-71
2024/04/03 19:57:57;;;;;;;16.40;9.20;;;;;;;;;;104163;1289;545527;-71
2024/04/03 20:01:37;;;;;;;14.30;7.70;;;;;;;;;;104665;1283;545575;-71
2024/04/03 20:05:12;;;;;;;13.20;6.50;;;;;;;;;;103776;1291;545477;-70
2024/04/03 20:08:50;;;;;;;11.30;6.00;;;;;;;;;;103756;1296;545940;-71
2024/04/03 20:12:28;;;;;;;13.60;6.20;;;;;;;;;;103761;1289;544976;-72
2024/04/03 20:16:06;;;;;;;17.00;8.70;;;;;;;;;;104526;1283;544765;-70
2024/04/03 20:19:43;;;;;;;20.10;9.80;;;;;;;;;;103721;1289;544984;-70
2024/04/03 20:23:20;;;;;;;16.10;7.20;;;;;;;;;;103769;1290;545726;-71
2024/04/03 20:26:57;;;;;;;17.80;8.60;;;;;;;;;;104450;1283;544766;-71
2024/04/03 20:30:35;;;;;;;13.60;6.30;;;;;;;;;;103625;1305;545452;-70
2024/04/03 20:34:13;;;;;;;12.40;5.40;;;;;;;;;;103664;1292;545285;-71
2024/04/03 20:37:50;;;;;;;12.40;4.70;;;;;;;;;;103799;1290;545456;-71
2024/04/03 20:41:27;;;;;;;10.70;4.50;;;;;;;;;;104364;1283;544767;-71
2024/04/03 20:45:01;;;;;;;11.80;5.30;;;;;;;;;;103758;1294;545282;-70
2024/04/03 20:48:42;;;;;;;11.10;4.20;;;;;;;;;;103746;1289;544951;-70
2024/04/03 20:52:20;;;;;;;9.40;3.50;;;;;;;;;;103508;1298;544881;-72
2024/04/03 20:55:57;;;;;;;8.90;3.00;;;;;;;;;;103651;1289;545269;-69
2024/04/03 20:59:36;;;;;;;11.30;2.80;;;;;;;;;;103707;1290;545516;-70
2024/04/03 21:03:12;;;;;;;8.90;3.40;;;;;;;;;;103877;1289;545428;-70